sensor_id;sensor_type;location;lat;lon;timestamp;P1;durP1;ratioP1;P2;durP2;ratioP2
15104;SDS011;7653;48.994;9.212;2023-08-24T00:02:05;7.17;;;5.70;;
15104;SDS011;7653;48.994;9.212;2023-08-24T00:04:31;7.47;;;5.43;;
15104;SDS011;7653;48.994;9.212;2023-08-24T00:06:57;6.30;;;5.70;;
15104;SDS011;7653;48.994;9.212;2023-08-24T00:09:23;7.10;;;5.33;;
15104;SDS011;7653;48.994;9.212;2023-08-24T00:11:49;8.10;;;6.03;;
15104;SDS011;7653;48.994;9.212;2023-08-24T00:14:15;6.03;;;5.33;;
15104;SDS011;7653;48.994;9.212;2023-08-24T00:16:42;9.90;;;5.60;;
15104;SDS011;7653;48.994;9.212;2023-08-24T00:19:07;7.83;;;5.73;;
15104;SDS011;7653;48.994;9.212;2023-08-24T00:21:33;9.00;;;5.53;;
15104;SDS011;7653;48.994;9.212;2023-08-24T00:23:58;8.43;;;5.73;;
15104;SDS011;7653;48.994;9.212;2023-08-24T00:26:24;6.03;;;5.37;;
15104;SDS011;7653;48.994;9.212;2023-08-24T00:28:50;6.03;;;5.40;;
15104;SDS011;7653;48.994;9.212;2023-08-24T00:31:16;8.53;;;6.23;;
15104;SDS011;7653;48.994;9.212;2023-08-24T00:33:42;7.20;;;5.80;;
15104;SDS011;7653;48.994;9.212;2023-08-24T00:36:07;7.67;;;5.53;;
15104;SDS011;7653;48.994;9.212;2023-08-24T00:38:33;5.83;;;5.23;;
15104;SDS011;7653;48.994;9.212;2023-08-24T00:40:59;5.73;;;4.90;;
15104;SDS011;7653;48.994;9.212;2023-08-24T00:43:25;6.73;;;5.40;;
15104;SDS011;7653;48.994;9.212;2023-08-24T00:45:51;5.77;;;5.23;;
15104;SDS011;7653;48.994;9.212;2023-08-24T00:48:19;6.03;;;5.43;;
15104;SDS011;7653;48.994;9.212;2023-08-24T00:50:45;6.27;;;5.00;;
15104;SDS011;7653;48.994;9.212;2023-08-24T00:53:11;5.43;;;4.93;;
15104;SDS011;7653;48.994;9.212;2023-08-24T00:55:37;5.50;;;4.70;;
15104;SDS011;7653;48.994;9.212;2023-08-24T00:58:03;6.77;;;5.30;;
15104;SDS011;7653;48.994;9.212;2023-08-24T01:00:29;6.10;;;5.47;;
15104;SDS011;7653;48.994;9.212;2023-08-24T01:02:54;6.07;;;5.47;;
15104;SDS011;7653;48.994;9.212;2023-08-24T01:05:20;12.30;;;5.90;;
15104;SDS011;7653;48.994;9.212;2023-08-24T01:07:46;5.73;;;5.00;;
15104;SDS011;7653;48.994;9.212;2023-08-24T01:10:12;8.03;;;5.33;;
15104;SDS011;7653;48.994;9.212;2023-08-24T01:12:59;5.97;;;5.37;;
15104;SDS011;7653;48.994;9.212;2023-08-24T01:18:11;7.00;;;5.60;;
15104;SDS011;7653;48.994;9.212;2023-08-24T01:20:42;6.97;;;5.10;;
15104;SDS011;7653;48.994;9.212;2023-08-24T01:23:19;5.63;;;5.13;;
15104;SDS011;7653;48.994;9.212;2023-08-24T01:26:14;7.13;;;6.03;;
15104;SDS011;7653;48.994;9.212;2023-08-24T01:28:42;6.80;;;5.93;;
15104;SDS011;7653;48.994;9.212;2023-08-24T01:31:09;7.20;;;6.17;;
15104;SDS011;7653;48.994;9.212;2023-08-24T01:33:35;8.70;;;5.87;;
15104;SDS011;7653;48.994;9.212;2023-08-24T01:36:01;6.80;;;6.10;;
15104;SDS011;7653;48.994;9.212;2023-08-24T01:38:27;6.57;;;5.80;;
15104;SDS011;7653;48.994;9.212;2023-08-24T01:40:54;7.27;;;5.80;;
15104;SDS011;7653;48.994;9.212;2023-08-24T01:43:39;7.37;;;5.70;;
15104;SDS011;7653;48.994;9.212;2023-08-24T01:46:07;7.30;;;5.60;;
15104;SDS011;7653;48.994;9.212;2023-08-24T01:48:33;7.13;;;6.47;;
15104;SDS011;7653;48.994;9.212;2023-08-24T01:51:00;9.03;;;6.87;;
15104;SDS011;7653;48.994;9.212;2023-08-24T01:53:27;7.77;;;5.60;;
15104;SDS011;7653;48.994;9.212;2023-08-24T01:55:55;6.33;;;5.73;;
15104;SDS011;7653;48.994;9.212;2023-08-24T01:58:21;6.77;;;6.10;;
15104;SDS011;7653;48.994;9.212;2023-08-24T02:00:46;8.33;;;6.07;;
15104;SDS011;7653;48.994;9.212;2023-08-24T02:03:12;7.07;;;6.03;;
15104;SDS011;7653;48.994;9.212;2023-08-24T02:05:38;6.20;;;5.53;;
15104;SDS011;7653;48.994;9.212;2023-08-24T02:08:03;5.57;;;5.17;;
15104;SDS011;7653;48.994;9.212;2023-08-24T02:10:29;6.17;;;5.70;;
15104;SDS011;7653;48.994;9.212;2023-08-24T02:12:55;8.23;;;6.00;;
15104;SDS011;7653;48.994;9.212;2023-08-24T02:15:20;6.13;;;5.63;;
15104;SDS011;7653;48.994;9.212;2023-08-24T02:17:46;6.53;;;5.90;;
15104;SDS011;7653;48.994;9.212;2023-08-24T02:20:12;8.03;;;6.17;;
15104;SDS011;7653;48.994;9.212;2023-08-24T02:22:38;6.50;;;5.73;;
15104;SDS011;7653;48.994;9.212;2023-08-24T02:25:04;7.37;;;6.67;;
15104;SDS011;7653;48.994;9.212;2023-08-24T02:27:31;8.33;;;6.40;;
15104;SDS011;7653;48.994;9.212;2023-08-24T02:29:57;7.73;;;6.43;;
15104;SDS011;7653;48.994;9.212;2023-08-24T02:32:22;8.20;;;7.00;;
15104;SDS011;7653;48.994;9.212;2023-08-24T02:34:48;8.33;;;7.53;;
15104;SDS011;7653;48.994;9.212;2023-08-24T02:37:14;7.87;;;7.13;;
15104;SDS011;7653;48.994;9.212;2023-08-24T02:39:39;8.23;;;7.23;;
15104;SDS011;7653;48.994;9.212;2023-08-24T02:42:05;6.63;;;6.10;;
15104;SDS011;7653;48.994;9.212;2023-08-24T02:44:31;6.50;;;5.90;;
15104;SDS011;7653;48.994;9.212;2023-08-24T02:46:56;6.20;;;5.70;;
15104;SDS011;7653;48.994;9.212;2023-08-24T02:49:22;6.43;;;5.83;;
15104;SDS011;7653;48.994;9.212;2023-08-24T02:51:48;6.90;;;6.20;;
15104;SDS011;7653;48.994;9.212;2023-08-24T02:54:14;8.07;;;7.00;;
15104;SDS011;7653;48.994;9.212;2023-08-24T02:56:40;7.33;;;6.63;;
15104;SDS011;7653;48.994;9.212;2023-08-24T02:59:05;7.07;;;6.47;;
15104;SDS011;7653;48.994;9.212;2023-08-24T03:01:31;7.00;;;6.30;;
15104;SDS011;7653;48.994;9.212;2023-08-24T03:03:57;9.57;;;6.83;;
15104;SDS011;7653;48.994;9.212;2023-08-24T03:06:23;7.70;;;6.93;;
15104;SDS011;7653;48.994;9.212;2023-08-24T03:08:51;7.17;;;6.47;;
15104;SDS011;7653;48.994;9.212;2023-08-24T03:11:17;8.27;;;7.47;;
15104;SDS011;7653;48.994;9.212;2023-08-24T03:13:42;8.97;;;8.07;;
15104;SDS011;7653;48.994;9.212;2023-08-24T03:16:08;8.53;;;7.70;;
15104;SDS011;7653;48.994;9.212;2023-08-24T03:18:34;9.83;;;8.80;;
15104;SDS011;7653;48.994;9.212;2023-08-24T03:21:00;7.87;;;7.07;;
15104;SDS011;7653;48.994;9.212;2023-08-24T03:23:26;8.23;;;7.40;;
15104;SDS011;7653;48.994;9.212;2023-08-24T03:25:52;12.57;;;7.57;;
15104;SDS011;7653;48.994;9.212;2023-08-24T03:28:18;8.80;;;6.70;;
15104;SDS011;7653;48.994;9.212;2023-08-24T03:30:48;7.30;;;6.53;;
15104;SDS011;7653;48.994;9.212;2023-08-24T03:33:15;8.13;;;6.50;;
15104;SDS011;7653;48.994;9.212;2023-08-24T03:35:41;8.00;;;7.13;;
15104;SDS011;7653;48.994;9.212;2023-08-24T03:38:07;10.13;;;7.77;;
15104;SDS011;7653;48.994;9.212;2023-08-24T03:40:32;8.93;;;7.20;;
15104;SDS011;7653;48.994;9.212;2023-08-24T03:42:58;7.73;;;6.93;;
15104;SDS011;7653;48.994;9.212;2023-08-24T03:45:24;7.10;;;6.50;;
15104;SDS011;7653;48.994;9.212;2023-08-24T03:47:50;8.57;;;6.97;;
15104;SDS011;7653;48.994;9.212;2023-08-24T03:50:16;8.27;;;7.37;;
15104;SDS011;7653;48.994;9.212;2023-08-24T03:52:42;8.87;;;7.43;;
15104;SDS011;7653;48.994;9.212;2023-08-24T03:55:08;9.33;;;6.60;;
15104;SDS011;7653;48.994;9.212;2023-08-24T03:57:33;7.63;;;6.60;;
15104;SDS011;7653;48.994;9.212;2023-08-24T03:59:59;7.50;;;6.90;;
15104;SDS011;7653;48.994;9.212;2023-08-24T04:02:25;9.60;;;8.00;;
15104;SDS011;7653;48.994;9.212;2023-08-24T04:04:52;9.33;;;7.07;;
15104;SDS011;7653;48.994;9.212;2023-08-24T04:07:17;7.47;;;6.73;;
15104;SDS011;7653;48.994;9.212;2023-08-24T04:09:43;8.03;;;7.17;;
15104;SDS011;7653;48.994;9.212;2023-08-24T04:12:10;7.53;;;6.73;;
15104;SDS011;7653;48.994;9.212;2023-08-24T04:14:36;9.23;;;6.40;;
15104;SDS011;7653;48.994;9.212;2023-08-24T04:17:01;7.77;;;7.07;;
15104;SDS011;7653;48.994;9.212;2023-08-24T04:19:27;7.83;;;6.80;;
15104;SDS011;7653;48.994;9.212;2023-08-24T04:21:53;7.93;;;7.00;;
15104;SDS011;7653;48.994;9.212;2023-08-24T04:24:18;7.93;;;7.13;;
15104;SDS011;7653;48.994;9.212;2023-08-24T04:26:44;8.33;;;7.53;;
15104;SDS011;7653;48.994;9.212;2023-08-24T04:29:09;10.77;;;6.97;;
15104;SDS011;7653;48.994;9.212;2023-08-24T04:31:35;7.67;;;7.00;;
15104;SDS011;7653;48.994;9.212;2023-08-24T04:34:02;8.23;;;7.13;;
15104;SDS011;7653;48.994;9.212;2023-08-24T04:36:29;7.70;;;7.00;;
15104;SDS011;7653;48.994;9.212;2023-08-24T04:38:54;8.67;;;6.70;;
15104;SDS011;7653;48.994;9.212;2023-08-24T04:41:20;7.90;;;7.10;;
15104;SDS011;7653;48.994;9.212;2023-08-24T04:43:45;7.97;;;7.27;;
15104;SDS011;7653;48.994;9.212;2023-08-24T04:46:11;7.80;;;7.10;;
15104;SDS011;7653;48.994;9.212;2023-08-24T04:48:37;8.77;;;7.33;;
15104;SDS011;7653;48.994;9.212;2023-08-24T04:51:02;8.77;;;7.20;;
15104;SDS011;7653;48.994;9.212;2023-08-24T04:53:28;8.23;;;7.43;;
15104;SDS011;7653;48.994;9.212;2023-08-24T04:55:54;8.73;;;6.90;;
15104;SDS011;7653;48.994;9.212;2023-08-24T04:58:19;6.77;;;6.20;;
15104;SDS011;7653;48.994;9.212;2023-08-24T05:00:45;8.20;;;7.00;;
15104;SDS011;7653;48.994;9.212;2023-08-24T05:03:11;10.17;;;6.90;;
15104;SDS011;7653;48.994;9.212;2023-08-24T05:05:37;7.60;;;6.30;;
15104;SDS011;7653;48.994;9.212;2023-08-24T05:08:03;10.80;;;6.83;;
15104;SDS011;7653;48.994;9.212;2023-08-24T05:10:36;9.43;;;6.97;;
15104;SDS011;7653;48.994;9.212;2023-08-24T05:13:02;8.50;;;7.20;;
15104;SDS011;7653;48.994;9.212;2023-08-24T05:15:28;8.73;;;7.40;;
15104;SDS011;7653;48.994;9.212;2023-08-24T05:17:54;8.83;;;7.03;;
15104;SDS011;7653;48.994;9.212;2023-08-24T05:20:22;11.03;;;7.70;;
15104;SDS011;7653;48.994;9.212;2023-08-24T05:22:48;10.07;;;6.80;;
15104;SDS011;7653;48.994;9.212;2023-08-24T05:25:13;7.13;;;6.43;;
15104;SDS011;7653;48.994;9.212;2023-08-24T05:27:41;10.20;;;8.17;;
15104;SDS011;7653;48.994;9.212;2023-08-24T05:30:07;8.33;;;6.57;;
15104;SDS011;7653;48.994;9.212;2023-08-24T05:32:34;8.37;;;6.83;;
15104;SDS011;7653;48.994;9.212;2023-08-24T05:35:04;8.67;;;6.90;;
15104;SDS011;7653;48.994;9.212;2023-08-24T05:37:30;8.37;;;6.73;;
15104;SDS011;7653;48.994;9.212;2023-08-24T05:39:56;7.50;;;6.43;;
15104;SDS011;7653;48.994;9.212;2023-08-24T05:42:22;7.93;;;6.57;;
15104;SDS011;7653;48.994;9.212;2023-08-24T05:44:48;9.40;;;6.90;;
15104;SDS011;7653;48.994;9.212;2023-08-24T05:47:13;10.10;;;6.30;;
15104;SDS011;7653;48.994;9.212;2023-08-24T05:49:39;10.27;;;6.33;;
15104;SDS011;7653;48.994;9.212;2023-08-24T05:52:04;8.63;;;6.43;;
15104;SDS011;7653;48.994;9.212;2023-08-24T05:54:30;8.63;;;6.87;;
15104;SDS011;7653;48.994;9.212;2023-08-24T05:56:57;9.43;;;6.53;;
15104;SDS011;7653;48.994;9.212;2023-08-24T05:59:25;9.77;;;6.40;;
15104;SDS011;7653;48.994;9.212;2023-08-24T06:01:51;10.20;;;6.57;;
15104;SDS011;7653;48.994;9.212;2023-08-24T06:04:17;8.07;;;6.70;;
15104;SDS011;7653;48.994;9.212;2023-08-24T06:06:43;9.20;;;6.57;;
15104;SDS011;7653;48.994;9.212;2023-08-24T06:09:09;7.10;;;6.40;;
15104;SDS011;7653;48.994;9.212;2023-08-24T06:11:35;8.67;;;5.73;;
15104;SDS011;7653;48.994;9.212;2023-08-24T06:14:01;6.83;;;6.03;;
15104;SDS011;7653;48.994;9.212;2023-08-24T06:16:27;10.47;;;6.40;;
15104;SDS011;7653;48.994;9.212;2023-08-24T06:18:54;8.23;;;5.67;;
15104;SDS011;7653;48.994;9.212;2023-08-24T06:21:19;8.77;;;6.00;;
15104;SDS011;7653;48.994;9.212;2023-08-24T06:23:45;6.73;;;5.83;;
15104;SDS011;7653;48.994;9.212;2023-08-24T06:26:12;7.77;;;5.13;;
15104;SDS011;7653;48.994;9.212;2023-08-24T06:28:38;7.20;;;5.00;;
15104;SDS011;7653;48.994;9.212;2023-08-24T06:31:04;5.83;;;5.10;;
15104;SDS011;7653;48.994;9.212;2023-08-24T06:33:35;6.47;;;5.80;;
15104;SDS011;7653;48.994;9.212;2023-08-24T06:36:02;7.03;;;5.47;;
15104;SDS011;7653;48.994;9.212;2023-08-24T06:38:32;6.73;;;5.80;;
15104;SDS011;7653;48.994;9.212;2023-08-24T06:40:58;6.10;;;5.47;;
15104;SDS011;7653;48.994;9.212;2023-08-24T06:43:27;6.73;;;5.70;;
15104;SDS011;7653;48.994;9.212;2023-08-24T06:45:56;8.47;;;6.00;;
15104;SDS011;7653;48.994;9.212;2023-08-24T06:48:22;7.57;;;6.37;;
15104;SDS011;7653;48.994;9.212;2023-08-24T06:50:48;8.07;;;5.00;;
15104;SDS011;7653;48.994;9.212;2023-08-24T06:53:14;9.00;;;6.00;;
15104;SDS011;7653;48.994;9.212;2023-08-24T06:55:40;7.07;;;5.80;;
15104;SDS011;7653;48.994;9.212;2023-08-24T06:58:05;7.83;;;6.40;;
15104;SDS011;7653;48.994;9.212;2023-08-24T07:00:31;9.93;;;6.77;;
15104;SDS011;7653;48.994;9.212;2023-08-24T07:02:58;9.50;;;6.70;;
15104;SDS011;7653;48.994;9.212;2023-08-24T07:05:24;7.97;;;7.20;;
15104;SDS011;7653;48.994;9.212;2023-08-24T07:07:50;9.33;;;7.33;;
15104;SDS011;7653;48.994;9.212;2023-08-24T07:10:15;8.37;;;6.93;;
15104;SDS011;7653;48.994;9.212;2023-08-24T07:12:42;7.17;;;5.97;;
15104;SDS011;7653;48.994;9.212;2023-08-24T07:15:10;10.80;;;5.63;;
15104;SDS011;7653;48.994;9.212;2023-08-24T07:17:36;8.43;;;5.60;;
15104;SDS011;7653;48.994;9.212;2023-08-24T07:20:02;8.53;;;6.03;;
15104;SDS011;7653;48.994;9.212;2023-08-24T07:22:30;9.37;;;5.33;;
15104;SDS011;7653;48.994;9.212;2023-08-24T07:24:56;8.37;;;5.13;;
15104;SDS011;7653;48.994;9.212;2023-08-24T07:27:22;8.63;;;4.40;;
15104;SDS011;7653;48.994;9.212;2023-08-24T07:29:47;6.23;;;5.20;;
15104;SDS011;7653;48.994;9.212;2023-08-24T07:32:13;7.33;;;4.43;;
15104;SDS011;7653;48.994;9.212;2023-08-24T07:34:39;6.53;;;4.70;;
15104;SDS011;7653;48.994;9.212;2023-08-24T07:37:05;4.73;;;4.33;;
15104;SDS011;7653;48.994;9.212;2023-08-24T07:39:30;7.60;;;4.63;;
15104;SDS011;7653;48.994;9.212;2023-08-24T07:41:57;6.57;;;4.60;;
15104;SDS011;7653;48.994;9.212;2023-08-24T07:44:22;7.93;;;4.60;;
15104;SDS011;7653;48.994;9.212;2023-08-24T07:46:48;9.10;;;4.47;;
15104;SDS011;7653;48.994;9.212;2023-08-24T07:49:14;14.13;;;4.87;;
15104;SDS011;7653;48.994;9.212;2023-08-24T07:51:40;4.97;;;4.37;;
15104;SDS011;7653;48.994;9.212;2023-08-24T07:54:07;4.73;;;4.23;;
15104;SDS011;7653;48.994;9.212;2023-08-24T07:56:33;8.97;;;4.80;;
15104;SDS011;7653;48.994;9.212;2023-08-24T07:59:01;5.60;;;4.10;;
15104;SDS011;7653;48.994;9.212;2023-08-24T08:01:27;5.83;;;4.33;;
15104;SDS011;7653;48.994;9.212;2023-08-24T08:03:52;5.60;;;4.50;;
15104;SDS011;7653;48.994;9.212;2023-08-24T08:06:18;6.50;;;4.00;;
15104;SDS011;7653;48.994;9.212;2023-08-24T08:08:44;7.40;;;4.40;;
15104;SDS011;7653;48.994;9.212;2023-08-24T08:11:11;5.83;;;4.37;;
15104;SDS011;7653;48.994;9.212;2023-08-24T08:13:37;4.43;;;3.97;;
15104;SDS011;7653;48.994;9.212;2023-08-24T08:16:06;5.63;;;4.27;;
15104;SDS011;7653;48.994;9.212;2023-08-24T08:18:32;8.97;;;4.33;;
15104;SDS011;7653;48.994;9.212;2023-08-24T08:21:00;13.30;;;4.80;;
15104;SDS011;7653;48.994;9.212;2023-08-24T08:23:25;8.17;;;4.03;;
15104;SDS011;7653;48.994;9.212;2023-08-24T08:25:51;4.37;;;3.80;;
15104;SDS011;7653;48.994;9.212;2023-08-24T08:28:17;6.57;;;4.23;;
15104;SDS011;7653;48.994;9.212;2023-08-24T08:30:43;5.30;;;4.07;;
15104;SDS011;7653;48.994;9.212;2023-08-24T08:33:10;4.90;;;4.03;;
15104;SDS011;7653;48.994;9.212;2023-08-24T08:35:35;9.63;;;4.67;;
15104;SDS011;7653;48.994;9.212;2023-08-24T08:38:02;9.37;;;4.10;;
15104;SDS011;7653;48.994;9.212;2023-08-24T08:40:29;7.20;;;3.92;;
15104;SDS011;7653;48.994;9.212;2023-08-24T08:42:56;9.93;;;4.13;;
15104;SDS011;7653;48.994;9.212;2023-08-24T08:45:24;6.75;;;4.22;;
15104;SDS011;7653;48.994;9.212;2023-08-24T08:47:59;8.40;;;4.32;;
15104;SDS011;7653;48.994;9.212;2023-08-24T08:50:26;5.18;;;4.00;;
15104;SDS011;7653;48.994;9.212;2023-08-24T08:52:52;8.10;;;4.50;;
15104;SDS011;7653;48.994;9.212;2023-08-24T08:55:18;4.57;;;3.85;;
15104;SDS011;7653;48.994;9.212;2023-08-24T08:57:47;6.50;;;4.25;;
15104;SDS011;7653;48.994;9.212;2023-08-24T09:00:14;5.80;;;4.18;;
15104;SDS011;7653;48.994;9.212;2023-08-24T09:02:42;6.07;;;3.75;;
15104;SDS011;7653;48.994;9.212;2023-08-24T09:05:12;6.53;;;3.40;;
15104;SDS011;7653;48.994;9.212;2023-08-24T09:07:41;5.65;;;3.50;;
15104;SDS011;7653;48.994;9.212;2023-08-24T09:10:07;11.65;;;3.88;;
15104;SDS011;7653;48.994;9.212;2023-08-24T09:12:33;6.90;;;3.80;;
15104;SDS011;7653;48.994;9.212;2023-08-24T09:14:59;7.45;;;3.55;;
15104;SDS011;7653;48.994;9.212;2023-08-24T09:17:28;5.57;;;3.40;;
15104;SDS011;7653;48.994;9.212;2023-08-24T09:19:57;12.50;;;4.28;;
15104;SDS011;7653;48.994;9.212;2023-08-24T09:22:24;5.15;;;3.90;;
15104;SDS011;7653;48.994;9.212;2023-08-24T09:24:50;6.57;;;3.42;;
15104;SDS011;7653;48.994;9.212;2023-08-24T09:27:20;6.13;;;3.47;;
15104;SDS011;7653;48.994;9.212;2023-08-24T09:29:52;5.80;;;3.53;;
15104;SDS011;7653;48.994;9.212;2023-08-24T09:32:21;3.72;;;3.35;;
15104;SDS011;7653;48.994;9.212;2023-08-24T09:35:03;6.47;;;3.58;;
15104;SDS011;7653;48.994;9.212;2023-08-24T09:37:34;3.92;;;3.53;;
15104;SDS011;7653;48.994;9.212;2023-08-24T09:40:04;6.30;;;3.58;;
15104;SDS011;7653;48.994;9.212;2023-08-24T09:42:36;5.63;;;3.72;;
15104;SDS011;7653;48.994;9.212;2023-08-24T09:45:07;6.47;;;3.80;;
15104;SDS011;7653;48.994;9.212;2023-08-24T09:47:36;6.57;;;3.40;;
15104;SDS011;7653;48.994;9.212;2023-08-24T09:50:02;4.18;;;3.17;;
15104;SDS011;7653;48.994;9.212;2023-08-24T09:52:31;4.28;;;3.50;;
15104;SDS011;7653;48.994;9.212;2023-08-24T09:54:58;4.63;;;3.95;;
15104;SDS011;7653;48.994;9.212;2023-08-24T09:57:34;6.57;;;3.63;;
15104;SDS011;7653;48.994;9.212;2023-08-24T10:00:08;9.05;;;3.60;;
15104;SDS011;7653;48.994;9.212;2023-08-24T10:02:36;6.80;;;3.53;;
15104;SDS011;7653;48.994;9.212;2023-08-24T10:05:07;8.82;;;3.83;;
15104;SDS011;7653;48.994;9.212;2023-08-24T10:07:33;6.63;;;4.30;;
15104;SDS011;7653;48.994;9.212;2023-08-24T10:10:03;4.43;;;3.78;;
15104;SDS011;7653;48.994;9.212;2023-08-24T10:12:32;4.78;;;3.92;;
15104;SDS011;7653;48.994;9.212;2023-08-24T10:15:09;7.57;;;4.03;;
15104;SDS011;7653;48.994;9.212;2023-08-24T10:17:38;7.45;;;3.78;;
15104;SDS011;7653;48.994;9.212;2023-08-24T10:20:04;5.45;;;4.10;;
15104;SDS011;7653;48.994;9.212;2023-08-24T10:22:34;5.28;;;4.00;;
15104;SDS011;7653;48.994;9.212;2023-08-24T10:25:01;5.18;;;4.00;;
15104;SDS011;7653;48.994;9.212;2023-08-24T10:27:30;4.25;;;3.80;;
15104;SDS011;7653;48.994;9.212;2023-08-24T10:29:56;7.43;;;4.30;;
15104;SDS011;7653;48.994;9.212;2023-08-24T10:32:25;4.75;;;4.03;;
15104;SDS011;7653;48.994;9.212;2023-08-24T10:34:51;5.13;;;3.90;;
15104;SDS011;7653;48.994;9.212;2023-08-24T10:37:21;5.93;;;3.90;;
15104;SDS011;7653;48.994;9.212;2023-08-24T10:39:50;4.95;;;4.43;;
15104;SDS011;7653;48.994;9.212;2023-08-24T10:42:16;5.90;;;4.50;;
15104;SDS011;7653;48.994;9.212;2023-08-24T10:44:45;4.32;;;3.90;;
15104;SDS011;7653;48.994;9.212;2023-08-24T10:49:41;6.68;;;3.63;;
15104;SDS011;7653;48.994;9.212;2023-08-24T10:52:17;8.73;;;4.10;;
15104;SDS011;7653;48.994;9.212;2023-08-24T10:54:47;4.82;;;3.65;;
15104;SDS011;7653;48.994;9.212;2023-08-24T10:57:18;4.28;;;3.88;;
15104;SDS011;7653;48.994;9.212;2023-08-24T11:02:31;7.25;;;3.80;;
15104;SDS011;7653;48.994;9.212;2023-08-24T11:05:16;5.25;;;4.13;;
15104;SDS011;7653;48.994;9.212;2023-08-24T11:07:56;6.32;;;3.95;;
15104;SDS011;7653;48.994;9.212;2023-08-24T11:10:25;4.50;;;3.90;;
15104;SDS011;7653;48.994;9.212;2023-08-24T11:21:00;5.03;;;4.47;;
15104;SDS011;7653;48.994;9.212;2023-08-24T11:23:28;4.50;;;4.07;;
15104;SDS011;7653;48.994;9.212;2023-08-24T11:25:54;4.90;;;4.10;;
15104;SDS011;7653;48.994;9.212;2023-08-24T11:28:23;4.32;;;3.70;;
15104;SDS011;7653;48.994;9.212;2023-08-24T11:30:50;7.05;;;4.32;;
15104;SDS011;7653;48.994;9.212;2023-08-24T11:33:17;4.65;;;4.18;;
15104;SDS011;7653;48.994;9.212;2023-08-24T11:36:00;7.47;;;3.88;;
15104;SDS011;7653;48.994;9.212;2023-08-24T11:38:41;5.70;;;4.32;;
15104;SDS011;7653;48.994;9.212;2023-08-24T11:41:11;4.57;;;4.10;;
15104;SDS011;7653;48.994;9.212;2023-08-24T11:43:44;8.30;;;4.05;;
15104;SDS011;7653;48.994;9.212;2023-08-24T11:46:12;5.00;;;3.55;;
15104;SDS011;7653;48.994;9.212;2023-08-24T11:48:38;6.15;;;3.75;;
15104;SDS011;7653;48.994;9.212;2023-08-24T11:51:07;6.90;;;3.95;;
15104;SDS011;7653;48.994;9.212;2023-08-24T11:53:36;5.43;;;3.80;;
15104;SDS011;7653;48.994;9.212;2023-08-24T11:56:02;6.47;;;4.10;;
15104;SDS011;7653;48.994;9.212;2023-08-24T11:58:30;7.30;;;4.35;;
15104;SDS011;7653;48.994;9.212;2023-08-24T12:00:56;5.47;;;4.13;;
15104;SDS011;7653;48.994;9.212;2023-08-24T12:03:23;7.07;;;3.85;;
15104;SDS011;7653;48.994;9.212;2023-08-24T12:05:49;5.80;;;4.35;;
15104;SDS011;7653;48.994;9.212;2023-08-24T12:08:15;5.18;;;3.80;;
15104;SDS011;7653;48.994;9.212;2023-08-24T12:10:43;8.40;;;4.50;;
15104;SDS011;7653;48.994;9.212;2023-08-24T12:13:11;6.07;;;4.10;;
15104;SDS011;7653;48.994;9.212;2023-08-24T12:15:37;4.82;;;4.00;;
15104;SDS011;7653;48.994;9.212;2023-08-24T12:18:07;6.10;;;4.00;;
15104;SDS011;7653;48.994;9.212;2023-08-24T12:20:34;5.60;;;3.97;;
15104;SDS011;7653;48.994;9.212;2023-08-24T12:23:00;6.57;;;4.30;;
15104;SDS011;7653;48.994;9.212;2023-08-24T12:25:25;4.90;;;3.95;;
15104;SDS011;7653;48.994;9.212;2023-08-24T12:27:51;5.15;;;4.00;;
15104;SDS011;7653;48.994;9.212;2023-08-24T12:30:19;10.10;;;4.32;;
15104;SDS011;7653;48.994;9.212;2023-08-24T12:32:46;5.93;;;3.83;;
15104;SDS011;7653;48.994;9.212;2023-08-24T12:35:15;5.40;;;4.07;;
15104;SDS011;7653;48.994;9.212;2023-08-24T12:37:41;7.10;;;4.20;;
15104;SDS011;7653;48.994;9.212;2023-08-24T12:40:07;4.72;;;3.85;;
15104;SDS011;7653;48.994;9.212;2023-08-24T12:42:33;4.90;;;4.05;;
15104;SDS011;7653;48.994;9.212;2023-08-24T12:44:59;5.40;;;3.90;;
15104;SDS011;7653;48.994;9.212;2023-08-24T12:47:25;8.88;;;4.28;;
15104;SDS011;7653;48.994;9.212;2023-08-24T12:49:51;6.55;;;3.85;;
15104;SDS011;7653;48.994;9.212;2023-08-24T12:52:17;8.25;;;4.28;;
15104;SDS011;7653;48.994;9.212;2023-08-24T12:54:44;8.00;;;3.90;;
15104;SDS011;7653;48.994;9.212;2023-08-24T12:57:10;6.97;;;4.30;;
15104;SDS011;7653;48.994;9.212;2023-08-24T12:59:36;5.25;;;3.97;;
15104;SDS011;7653;48.994;9.212;2023-08-24T13:02:02;4.75;;;4.30;;
15104;SDS011;7653;48.994;9.212;2023-08-24T13:04:29;6.35;;;4.50;;
15104;SDS011;7653;48.994;9.212;2023-08-24T13:06:57;5.47;;;3.95;;
15104;SDS011;7653;48.994;9.212;2023-08-24T13:09:22;5.95;;;4.20;;
15104;SDS011;7653;48.994;9.212;2023-08-24T13:11:48;5.07;;;4.32;;
15104;SDS011;7653;48.994;9.212;2023-08-24T13:14:14;6.75;;;4.47;;
15104;SDS011;7653;48.994;9.212;2023-08-24T13:16:40;7.75;;;4.40;;
15104;SDS011;7653;48.994;9.212;2023-08-24T13:19:06;6.78;;;4.85;;
15104;SDS011;7653;48.994;9.212;2023-08-24T13:21:32;8.50;;;4.65;;
15104;SDS011;7653;48.994;9.212;2023-08-24T13:23:58;7.03;;;4.30;;
15104;SDS011;7653;48.994;9.212;2023-08-24T13:26:23;5.82;;;4.57;;
15104;SDS011;7653;48.994;9.212;2023-08-24T13:28:49;7.18;;;4.85;;
15104;SDS011;7653;48.994;9.212;2023-08-24T13:31:15;6.05;;;4.20;;
15104;SDS011;7653;48.994;9.212;2023-08-24T13:33:42;6.32;;;4.40;;
15104;SDS011;7653;48.994;9.212;2023-08-24T13:36:07;5.10;;;4.25;;
15104;SDS011;7653;48.994;9.212;2023-08-24T13:38:33;6.85;;;4.50;;
15104;SDS011;7653;48.994;9.212;2023-08-24T13:40:58;4.53;;;3.78;;
15104;SDS011;7653;48.994;9.212;2023-08-24T13:43:24;6.65;;;4.38;;
15104;SDS011;7653;48.994;9.212;2023-08-24T13:45:50;8.75;;;4.50;;
15104;SDS011;7653;48.994;9.212;2023-08-24T13:48:16;6.88;;;4.30;;
15104;SDS011;7653;48.994;9.212;2023-08-24T13:50:41;7.20;;;4.15;;
15104;SDS011;7653;48.994;9.212;2023-08-24T13:53:14;6.20;;;4.53;;
15104;SDS011;7653;48.994;9.212;2023-08-24T13:55:40;6.03;;;4.18;;
15104;SDS011;7653;48.994;9.212;2023-08-24T13:58:05;8.63;;;4.22;;
15104;SDS011;7653;48.994;9.212;2023-08-24T14:00:31;6.95;;;3.65;;
15104;SDS011;7653;48.994;9.212;2023-08-24T14:02:57;6.63;;;4.10;;
15104;SDS011;7653;48.994;9.212;2023-08-24T14:05:22;5.32;;;4.13;;
15104;SDS011;7653;48.994;9.212;2023-08-24T14:07:48;6.50;;;4.10;;
15104;SDS011;7653;48.994;9.212;2023-08-24T14:10:14;6.47;;;4.10;;
15104;SDS011;7653;48.994;9.212;2023-08-24T14:12:39;9.02;;;4.32;;
15104;SDS011;7653;48.994;9.212;2023-08-24T14:15:05;5.03;;;4.00;;
15104;SDS011;7653;48.994;9.212;2023-08-24T14:17:31;5.85;;;4.13;;
15104;SDS011;7653;48.994;9.212;2023-08-24T14:19:57;9.25;;;4.57;;
15104;SDS011;7653;48.994;9.212;2023-08-24T14:22:22;7.00;;;4.47;;
15104;SDS011;7653;48.994;9.212;2023-08-24T14:24:50;5.07;;;4.35;;
15104;SDS011;7653;48.994;9.212;2023-08-24T14:27:16;8.13;;;4.57;;
15104;SDS011;7653;48.994;9.212;2023-08-24T14:29:41;8.05;;;4.25;;
15104;SDS011;7653;48.994;9.212;2023-08-24T14:32:07;7.90;;;4.15;;
15104;SDS011;7653;48.994;9.212;2023-08-24T14:34:32;6.15;;;4.50;;
15104;SDS011;7653;48.994;9.212;2023-08-24T14:36:58;6.75;;;4.28;;
15104;SDS011;7653;48.994;9.212;2023-08-24T14:39:24;6.05;;;4.43;;
15104;SDS011;7653;48.994;9.212;2023-08-24T14:41:49;6.97;;;4.63;;
15104;SDS011;7653;48.994;9.212;2023-08-24T14:44:15;8.45;;;4.70;;
15104;SDS011;7653;48.994;9.212;2023-08-24T14:46:41;16.90;;;4.88;;
15104;SDS011;7653;48.994;9.212;2023-08-24T14:49:06;10.93;;;4.82;;
15104;SDS011;7653;48.994;9.212;2023-08-24T14:51:33;6.78;;;4.28;;
15104;SDS011;7653;48.994;9.212;2023-08-24T14:53:59;8.27;;;4.80;;
15104;SDS011;7653;48.994;9.212;2023-08-24T14:56:24;9.52;;;4.53;;
15104;SDS011;7653;48.994;9.212;2023-08-24T14:58:50;6.18;;;4.80;;
15104;SDS011;7653;48.994;9.212;2023-08-24T15:01:15;9.07;;;5.03;;
15104;SDS011;7653;48.994;9.212;2023-08-24T15:03:42;8.00;;;5.20;;
15104;SDS011;7653;48.994;9.212;2023-08-24T15:06:07;7.65;;;4.65;;
15104;SDS011;7653;48.994;9.212;2023-08-24T15:08:33;10.50;;;4.68;;
15104;SDS011;7653;48.994;9.212;2023-08-24T15:11:01;7.78;;;3.25;;
15104;SDS011;7653;48.994;9.212;2023-08-24T15:13:27;7.15;;;3.60;;
15104;SDS011;7653;48.994;9.212;2023-08-24T15:15:54;7.35;;;4.65;;